Time;durP1;ratioP1;P1;durP2;ratioP2;P2;SDS_P1;SDS_P2;PMS_P1;PMS_P2;Temp;Humidity;BMP_temperature;BMP_pressure;BME280_temperature;BME280_humidity;BME280_pressure;Samples;Min_cycle;Max_cycle;Signal;HPM_P1;HPM_P2
2022/04/26 03:36:52;;;;;;;;;;;;;;;6.14;78.95;99360.31;5046188;28;19920;-74
2022/04/26 03:39:21;;;;;;;;;;;;;;;6.11;78.97;99362.81;5076577;28;19921;-74
2022/04/26 03:41:50;;;;;;;;;;;;;;;6.13;78.88;99363.69;5076445;28;19970;-74
2022/04/26 03:44:20;;;;;;;;;;;;;;;6.04;78.86;99364.44;5076215;28;19974;-74
2022/04/26 03:46:49;;;;;;;;;;;;;;;5.95;78.87;99367.69;5076549;28;20015;-74
2022/04/26 03:49:19;;;;;;;;;;;;;;;5.94;79.07;99373.59;5076449;28;19967;-74
2022/04/26 03:51:48;;;;;;;;;;;;;;;5.86;79.14;99374.31;5076321;28;19920;-74
2022/04/26 03:54:17;;;;;;;;;;;;;;;5.79;79.25;99380.09;5075900;28;20386;-74
2022/04/26 03:56:46;;;;;;;;;;;;;;;5.84;79.70;99375.94;5076005;28;19970;-74
2022/04/26 03:59:15;;;;;;;;;;;;;;;5.98;79.91;99377.00;5076173;28;19954;-74
2022/04/26 04:01:47;;;;;;;;;;;;;;;5.99;79.76;99381.25;5076212;28;19927;-74
2022/04/26 04:04:15;;;;;;;;;;;;;;;6.12;80.26;99383.09;5075799;28;19928;-72
2022/04/26 04:06:44;;;;;;;;;;;;;;;6.21;79.99;99378.16;5076045;28;20019;-72
2022/04/26 04:09:14;;;;;;;;;;;;;;;6.34;79.78;99379.97;5075659;28;19924;-72
2022/04/26 04:11:43;;;;;;;;;;;;;;;6.43;79.91;99377.53;5075584;28;19967;-72
2022/04/26 04:14:13;;;;;;;;;;;;;;;6.47;80.00;99386.91;5075603;28;20007;-72
2022/04/26 04:16:42;;;;;;;;;;;;;;;6.54;79.26;99388.66;5075807;28;19927;-72
2022/04/26 04:21:51;;;;;;;;;;;;;;;6.93;79.56;99400.03;5075421;28;20011;-72
2022/04/26 04:24:20;;;;;;;;;;;;;;;7.10;79.33;99401.03;5075665;28;20385;-72
2022/04/26 04:26:50;;;;;;;;;;;;;;;7.17;78.95;99396.03;5074365;28;19921;-72
2022/04/26 04:29:19;;;;;;;;;;;;;;;7.33;79.93;99389.38;5075503;28;19927;-71
2022/04/26 04:31:48;;;;;;;;;;;;;;;7.47;78.92;99387.75;5075615;28;19981;-72
2022/04/26 04:34:18;;;;;;;;;;;;;;;7.55;79.41;99393.75;5073836;28;19920;-72
2022/04/26 04:36:47;;;;;;;;;;;;;;;7.67;78.48;99390.44;5075226;28;20035;-72
2022/04/26 04:39:19;;;;;;;;;;;;;;;7.81;78.67;99387.16;5075309;28;20291;-72
2022/04/26 04:41:48;;;;;;;;;;;;;;;7.91;78.85;99385.50;5075054;28;19950;-72
2022/04/26 04:44:17;;;;;;;;;;;;;;;8.02;78.73;99389.78;5074947;28;19920;-72
2022/04/26 04:46:46;;;;;;;;;;;;;;;8.10;78.75;99388.13;5074927;28;19975;-72
2022/04/26 04:49:18;;;;;;;;;;;;;;;8.13;78.52;99385.59;5075188;28;20366;-72
2022/04/26 04:51:46;;;;;;;;;;;;;;;8.15;78.29;99394.91;5074852;28;20006;-72
2022/04/26 04:54:16;;;;;;;;;;;;;;;8.26;78.03;99395.81;5057312;28;19992;-72
2022/04/26 04:56:45;;;;;;;;;;;;;;;8.28;78.00;99401.81;5075177;28;19960;-71
2022/04/26 04:59:17;;;;;;;;;;;;;;;8.31;78.35;99420.44;5074719;28;19928;-72
2022/04/26 05:01:46;;;;;;;;;;;;;;;8.11;77.21;99420.31;5074316;28;19995;-72
2022/04/26 05:04:15;;;;;;;;;;;;;;;7.94;78.77;99421.09;5075921;28;19926;-71
2022/04/26 05:06:46;;;;;;;;;;;;;;;7.93;78.76;99427.84;5073809;28;19921;-72
2022/04/26 05:09:15;;;;;;;;;;;;;;;8.02;78.90;99432.97;5075160;28;20347;-73
2022/04/26 05:11:44;;;;;;;;;;;;;;;8.10;78.56;99438.97;5074316;28;19920;-72
2022/04/26 05:14:13;;;;;;;;;;;;;;;8.31;79.23;99439.94;5074773;28;20370;-73
2022/04/26 05:16:41;;;;;;;;;;;;;;;8.49;78.66;99435.78;5074340;28;19990;-73
2022/04/26 05:19:10;;;;;;;;;;;;;;;8.70;79.05;99442.63;5074534;28;19924;-73
2022/04/26 05:21:39;;;;;;;;;;;;;;;8.92;78.91;99443.53;5074228;28;20033;-72
2022/04/26 05:26:47;;;;;;;;;;;;;;;9.20;77.56;99440.16;5074824;28;20362;-72
2022/04/26 05:29:16;;;;;;;;;;;;;;;9.28;77.47;99433.38;5074572;28;19920;-73
2022/04/26 05:31:45;;;;;;;;;;;;;;;9.44;76.43;99441.03;5074355;28;19920;-72
2022/04/26 05:34:14;;;;;;;;;;;;;;;9.56;76.34;99445.28;5074326;28;20003;-72
2022/04/26 05:36:42;;;;;;;;;;;;;;;9.75;75.96;99451.19;5074145;28;19921;-72
2022/04/26 05:39:12;;;;;;;;;;;;;;;9.91;74.88;99452.88;5074055;28;19921;-72
2022/04/26 05:41:45;;;;;;;;;;;;;;;9.96;74.22;99462.19;5073028;28;20019;-71
2022/04/26 05:44:13;;;;;;;;;;;;;;;9.94;73.55;99457.97;5074341;28;19927;-72
2022/04/26 05:46:42;;;;;;;;;;;;;;;9.92;72.94;99462.22;5073798;28;20015;-73
2022/04/26 05:49:11;;;;;;;;;;;;;;;9.69;73.59;99469.06;5074376;28;20431;-72
2022/04/26 05:51:40;;;;;;;;;;;;;;;9.60;74.72;99472.44;5074017;28;19921;-72
2022/04/26 05:54:09;;;;;;;;;;;;;;;9.68;75.08;99477.53;5074475;28;19924;-71
2022/04/26 05:56:40;;;;;;;;;;;;;;;9.68;74.84;99478.38;5073968;28;19921;-71
2022/04/26 05:59:08;;;;;;;;;;;;;;;9.80;74.78;99472.44;5073939;28;20370;-71
2022/04/26 06:01:38;;;;;;;;;;;;;;;9.95;74.08;99473.25;5072878;28;20003;-72
2022/04/26 06:04:08;;;;;;;;;;;;;;;10.18;74.10;99474.94;5073778;28;20015;-71
2022/04/26 06:06:37;;;;;;;;;;;;;;;10.38;73.93;99468.94;5073702;28;19928;-71
2022/04/26 06:09:06;;;;;;;;;;;;;;;10.36;73.08;99468.09;5073777;28;19921;-72
2022/04/26 06:11:36;;;;;;;;;;;;;;;10.24;72.52;99468.13;5073872;28;19951;-71
2022/04/26 06:14:07;;;;;;;;;;;;;;;10.22;72.92;99463.88;5074003;28;20316;-72
2022/04/26 06:16:36;;;;;;;;;;;;;;;10.36;72.74;99473.19;5073647;28;19927;-71
2022/04/26 06:19:06;;;;;;;;;;;;;;;10.56;72.60;99466.31;5073678;28;20350;-72
2022/04/26 06:21:35;;;;;;;;;;;;;;;10.74;71.87;99463.69;5073728;28;20362;-71
2022/04/26 06:24:04;;;;;;;;;;;;;;;10.80;71.91;99464.50;5072685;28;20014;-72
2022/04/26 06:26:32;;;;;;;;;;;;;;;10.92;72.18;99464.44;5073890;28;20432;-72
2022/04/26 06:29:01;;;;;;;;;;;;;;;11.02;71.79;99466.06;5073527;28;19927;-71
2022/04/26 06:31:31;;;;;;;;;;;;;;;11.11;71.66;99466.03;5073619;28;19978;-70
2022/04/26 06:34:03;;;;;;;;;;;;;;;11.24;71.50;99462.53;5073953;28;19931;-72
2022/04/26 06:36:31;;;;;;;;;;;;;;;11.48;71.40;99457.22;5073551;28;19974;-72
2022/04/26 06:39:03;;;;;;;;;;;;;;;11.72;70.44;99457.06;5073962;28;19959;-71
2022/04/26 06:41:32;;;;;;;;;;;;;;;11.80;69.33;99455.28;5073626;28;20046;-72
2022/04/26 06:44:00;;;;;;;;;;;;;;;12.05;68.91;99451.59;5073397;28;19928;-71
2022/04/26 06:46:29;;;;;;;;;;;;;;;12.33;68.21;99441.06;5072613;28;20440;-72
2022/04/26 06:49:00;;;;;;;;;;;;;;;12.48;67.34;99446.00;5073813;28;19920;-72
2022/04/26 06:51:32;;;;;;;;;;;;;;;12.63;66.99;99440.69;5073307;28;20015;-71
2022/04/26 06:54:01;;;;;;;;;;;;;;;12.87;66.21;99440.38;5073633;28;19928;-71
2022/04/26 06:56:29;;;;;;;;;;;;;;;13.07;65.16;99437.56;5082467;28;19924;-71
2022/04/26 06:58:58;;;;;;;;;;;;;;;13.26;65.12;99442.41;5078524;28;20363;-72
2022/04/26 07:01:28;;;;;;;;;;;;;;;13.50;64.93;99442.88;5084770;28;19920;-72
2022/04/26 07:04:09;;;;;;;;;;;;;;;13.70;64.39;99445.94;5092172;28;19927;-71
2022/04/26 07:06:39;;;;;;;;;;;;;;;13.83;64.33;99444.84;5097081;28;19926;-71
2022/04/26 07:09:08;;;;;;;;;;;;;;;13.84;63.93;99449.13;5086438;28;19994;-72
2022/04/26 07:11:37;;;;;;;;;;;;;;;13.71;63.41;99448.47;5061226;28;19926;-72
2022/04/26 07:14:06;;;;;;;;;;;;;;;13.73;63.02;99456.13;5076954;28;19924;-72
2022/04/26 07:16:35;;;;;;;;;;;;;;;13.75;62.87;99454.41;5081681;28;19920;-71
2022/04/26 07:19:04;;;;;;;;;;;;;;;13.72;62.00;99459.59;5076552;28;20007;-71
2022/04/26 07:21:35;;;;;;;;;;;;;;;13.58;60.87;99453.84;5074836;28;19964;-72
2022/04/26 07:24:24;;;;;;;;;;;;;;;13.56;60.78;99458.13;5076714;28;19978;-73
2022/04/26 07:26:54;;;;;;;;;;;;;;;13.63;60.71;99454.63;5081233;28;19986;-71
2022/04/26 07:29:23;;;;;;;;;;;;;;;13.82;60.30;99453.44;5078783;28;19920;-72
2022/04/26 07:31:52;;;;;;;;;;;;;;;13.98;60.12;99462.53;5091801;28;19920;-72
2022/04/26 07:34:24;;;;;;;;;;;;;;;14.27;60.78;99459.44;5096470;28;19920;-71
2022/04/26 07:36:59;;;;;;;;;;;;;;;14.35;59.13;99467.88;5095703;28;19919;-70
2022/04/26 07:39:28;;;;;;;;;;;;;;;14.43;57.50;99461.72;5096540;28;19920;-70
2022/04/26 07:41:57;;;;;;;;;;;;;;;14.46;56.55;99461.66;5096326;28;20358;-71
2022/04/26 07:44:25;;;;;;;;;;;;;;;14.41;55.76;99476.31;5094391;28;20328;-71
2022/04/26 07:46:54;;;;;;;;;;;;;;;14.32;55.15;99479.06;5075844;28;19920;-71
2022/04/26 07:49:23;;;;;;;;;;;;;;;14.18;55.87;99470.72;5075973;28;19927;-70
2022/04/26 07:51:52;;;;;;;;;;;;;;;14.27;55.74;99485.13;5075868;28;19927;-72
2022/04/26 07:54:23;;;;;;;;;;;;;;;14.46;55.54;99479.63;5075847;28;20015;-71
2022/04/26 07:56:52;;;;;;;;;;;;;;;14.56;55.29;99477.72;5075022;28;20328;-72
2022/04/26 07:59:21;;;;;;;;;;;;;;;14.68;55.33;99483.44;5076127;28;19993;-71
2022/04/26 08:01:49;;;;;;;;;;;;;;;14.70;54.15;99476.56;5075933;28;20003;-71
2022/04/26 08:04:18;;;;;;;;;;;;;;;14.82;52.99;99477.19;5076112;28;19927;-72
2022/04/26 08:06:47;;;;;;;;;;;;;;;14.83;52.54;99473.75;5096146;28;20362;-71
2022/04/26 08:09:15;;;;;;;;;;;;;;;14.97;53.11;99480.25;5096125;28;19981;-71
2022/04/26 08:11:46;;;;;;;;;;;;;;;14.94;53.38;99479.50;5096071;28;19924;-71
2022/04/26 08:14:15;;;;;;;;;;;;;;;14.97;53.16;99484.56;5096192;28;20354;-71
2022/04/26 08:16:44;;;;;;;;;;;;;;;15.16;53.72;99480.72;5095961;28;20014;-71
2022/04/26 08:19:13;;;;;;;;;;;;;;;15.35;53.60;99482.00;5095665;28;20344;-72
2022/04/26 08:21:42;;;;;;;;;;;;;;;15.17;52.29;99482.41;5092354;28;19920;-71
2022/04/26 08:29:29;;;;;;;;;;;;;;;15.18;53.44;99494.38;5075270;28;19924;-70
2022/04/26 08:31:58;;;;;;;;;;;;;;;15.27;52.89;99494.16;5075229;28;19920;-71
2022/04/26 08:34:27;;;;;;;;;;;;;;;15.21;52.62;99499.47;5075235;28;20326;-70
2022/04/26 08:36:56;;;;;;;;;;;;;;;15.29;52.13;99498.41;5073982;28;19974;-71
2022/04/26 08:39:25;;;;;;;;;;;;;;;15.41;51.96;99502.41;5074983;28;19920;-70
2022/04/26 08:41:59;;;;;;;;;;;;;;;15.50;51.94;99502.22;5082348;28;19946;-72
2022/04/26 08:44:28;;;;;;;;;;;;;;;15.50;50.72;99498.84;5095163;28;19920;-71
2022/04/26 08:52:15;;;;;;;;;;;;;;;15.90;50.89;99502.97;5074797;28;20366;-71
2022/04/26 08:54:43;;;;;;;;;;;;;;;15.90;49.68;99487.53;5075060;28;19920;-71
2022/04/26 08:57:14;;;;;;;;;;;;;;;16.10;50.21;99500.72;5089657;28;19977;-71
2022/04/26 08:59:49;;;;;;;;;;;;;;;16.38;50.22;99500.00;5093881;28;19924;-70
2022/04/26 09:02:19;;;;;;;;;;;;;;;16.43;49.69;99493.00;5094899;28;19920;-70
2022/04/26 09:04:49;;;;;;;;;;;;;;;16.34;49.64;99499.22;5094829;28;19927;-71
2022/04/26 09:07:28;;;;;;;;;;;;;;;16.36;50.00;99499.19;5093178;28;19920;-72
2022/04/26 09:10:04;;;;;;;;;;;;;;;16.15;49.30;99499.78;5073593;28;20389;-72
2022/04/26 09:12:54;;;;;;;;;;;;;;;16.12;49.43;99498.13;5075958;28;19997;-71
2022/04/26 09:15:23;;;;;;;;;;;;;;;16.27;49.07;99496.88;5075077;28;19920;-71
2022/04/26 09:17:52;;;;;;;;;;;;;;;16.28;48.22;99493.41;5073804;28;19924;-71
2022/04/26 09:20:32;;;;;;;;;;;;;;;16.38;49.40;99490.53;5085068;28;19924;-70
2022/04/26 09:23:17;;;;;;;;;;;;;;;16.58;49.66;99487.44;5087493;28;19921;-70
2022/04/26 09:25:46;;;;;;;;;;;;;;;16.65;49.02;99483.81;5088652;28;19973;-70
2022/04/26 09:28:30;;;;;;;;;;;;;;;16.80;48.73;99483.34;5074127;28;19935;-71
2022/04/26 09:31:00;;;;;;;;;;;;;;;16.64;47.55;99482.97;5074901;28;19920;-70
2022/04/26 09:33:33;;;;;;;;;;;;;;;16.73;47.89;99487.00;5074929;28;19920;-70
2022/04/26 09:36:02;;;;;;;;;;;;;;;16.74;47.28;99483.53;5073849;28;19931;-70
2022/04/26 09:38:33;;;;;;;;;;;;;;;16.67;47.07;99466.56;5074220;28;19932;-69
2022/04/26 09:41:02;;;;;;;;;;;;;;;16.85;47.00;99484.06;5074408;28;19928;-69
2022/04/26 09:43:32;;;;;;;;;;;;;;;17.03;47.40;99488.69;5073923;28;19920;-69
2022/04/26 09:46:04;;;;;;;;;;;;;;;17.13;47.31;99484.94;5074332;28;19925;-69
2022/04/26 09:48:35;;;;;;;;;;;;;;;17.13;47.05;99487.50;5073246;28;19924;-69
2022/04/26 09:51:05;;;;;;;;;;;;;;;17.26;47.00;99485.41;5073945;28;19921;-68
2022/04/26 09:53:34;;;;;;;;;;;;;;;17.52;46.88;99484.59;5073702;28;20383;-68
2022/04/26 09:56:03;;;;;;;;;;;;;;;17.31;45.62;99481.78;5073880;28;19943;-71
2022/04/26 09:58:56;;;;;;;;;;;;;;;17.06;46.18;99475.69;5073923;28;19921;-70
2022/04/26 10:01:28;;;;;;;;;;;;;;;17.07;47.33;99472.22;5073850;28;19921;-70
2022/04/26 10:03:58;;;;;;;;;;;;;;;17.41;47.66;99472.03;5074275;28;19970;-70
2022/04/26 10:06:27;;;;;;;;;;;;;;;17.58;46.23;99468.94;5073994;28;19921;-70
2022/04/26 10:08:56;;;;;;;;;;;;;;;17.76;47.14;99469.19;5073923;28;19927;-70
2022/04/26 10:11:25;;;;;;;;;;;;;;;17.96;47.04;99476.25;5073767;28;19921;-70
2022/04/26 10:13:56;;;;;;;;;;;;;;;17.89;44.35;99469.63;5073849;28;20349;-69
2022/04/26 10:16:24;;;;;;;;;;;;;;;17.73;43.18;99464.09;5073988;28;19964;-70
2022/04/26 10:19:01;;;;;;;;;;;;;;;17.86;43.18;99455.06;5073899;28;19920;-70
2022/04/26 10:21:41;;;;;;;;;;;;;;;18.05;43.27;99455.28;5073202;28;20355;-72
2022/04/26 10:24:14;;;;;;;;;;;;;;;18.32;45.02;99449.16;5086460;28;19920;-70
2022/04/26 10:26:43;;;;;;;;;;;;;;;18.57;44.57;99444.78;5093767;28;19926;-70
2022/04/26 10:29:24;;;;;;;;;;;;;;;18.68;42.69;99453.00;5094326;28;20014;-70
2022/04/26 10:32:00;;;;;;;;;;;;;;;18.62;41.84;99442.88;5084248;28;19921;-70
2022/04/26 10:34:30;;;;;;;;;;;;;;;18.93;43.93;99441.75;5076794;28;19920;-71
2022/04/26 10:37:00;;;;;;;;;;;;;;;18.78;42.01;99447.50;5078372;28;20313;-69
2022/04/26 10:39:31;;;;;;;;;;;;;;;18.68;42.30;99442.66;5077795;28;19920;-70
2022/04/26 10:42:01;;;;;;;;;;;;;;;18.73;42.44;99435.59;5077399;28;19927;-70
2022/04/26 10:44:33;;;;;;;;;;;;;;;18.63;42.19;99433.38;5076385;28;19920;-70
2022/04/26 10:47:14;;;;;;;;;;;;;;;18.55;42.16;99433.69;5077648;28;19942;-71
2022/04/26 10:49:43;;;;;;;;;;;;;;;18.50;42.33;99433.00;5077307;28;19924;-70
2022/04/26 10:52:24;;;;;;;;;;;;;;;18.27;42.26;99445.88;5077084;28;19990;-70
2022/04/26 10:55:03;;;;;;;;;;;;;;;18.22;42.17;99437.44;5076496;28;19924;-70
2022/04/26 10:57:33;;;;;;;;;;;;;;;18.11;42.67;99437.00;5077466;28;19927;-70
2022/04/26 11:00:05;;;;;;;;;;;;;;;18.53;44.94;99435.47;5059172;28;19956;-70
2022/04/26 11:02:35;;;;;;;;;;;;;;;18.78;42.63;99431.97;5077105;28;19926;-69
2022/04/26 11:05:05;;;;;;;;;;;;;;;18.45;40.37;99424.53;5077206;28;19924;-69
2022/04/26 11:07:33;;;;;;;;;;;;;;;17.94;41.08;99431.56;5076951;28;19921;-70
2022/04/26 11:10:04;;;;;;;;;;;;;;;17.89;42.19;99426.56;5065817;28;19924;-69
2022/04/26 11:12:37;;;;;;;;;;;;;;;17.87;41.96;99430.94;5077087;28;19976;-69
2022/04/26 11:15:09;;;;;;;;;;;;;;;17.65;41.80;99429.13;5076837;28;19926;-69
2022/04/26 11:17:37;;;;;;;;;;;;;;;17.59;41.62;99426.78;5076943;28;19921;-69
2022/04/26 11:20:14;;;;;;;;;;;;;;;17.81;41.85;99430.28;5076354;28;19927;-68
2022/04/26 11:22:46;;;;;;;;;;;;;;;18.06;41.34;99431.16;5076732;28;20542;-69
2022/04/26 11:28:03;;;;;;;;;;;;;;;18.65;41.36;99432.44;5076693;28;19924;-69
2022/04/26 11:30:33;;;;;;;;;;;;;;;18.68;40.48;99426.31;5075488;28;19920;-69
2022/04/26 11:33:03;;;;;;;;;;;;;;;18.48;40.32;99429.63;5076889;28;20366;-70
2022/04/26 11:35:32;;;;;;;;;;;;;;;18.37;40.27;99421.41;5076230;28;19951;-70
2022/04/26 11:38:05;;;;;;;;;;;;;;;18.43;40.48;99423.75;5076495;28;19943;-71
2022/04/26 11:40:36;;;;;;;;;;;;;;;18.23;39.79;99428.81;5076513;28;20019;-70
2022/04/26 11:43:10;;;;;;;;;;;;;;;18.24;40.44;99414.97;5081229;28;20008;-70
2022/04/26 11:45:41;;;;;;;;;;;;;;;18.43;40.77;99418.59;5094031;28;19967;-70
2022/04/26 11:48:11;;;;;;;;;;;;;;;18.63;40.43;99421.31;5096332;28;19920;-71
2022/04/26 11:50:40;;;;;;;;;;;;;;;18.98;40.50;99419.13;5096414;28;19927;-71
2022/04/26 11:53:10;;;;;;;;;;;;;;;19.31;40.64;99415.22;5096236;28;20021;-71
2022/04/26 11:55:40;;;;;;;;;;;;;;;19.29;39.90;99419.59;5096141;28;19973;-70
2022/04/26 11:58:10;;;;;;;;;;;;;;;19.20;40.93;99415.63;5096241;28;19920;-70
2022/04/26 12:00:51;;;;;;;;;;;;;;;19.11;41.43;99420.31;5096098;28;19920;-70
2022/04/26 12:03:21;;;;;;;;;;;;;;;18.89;40.08;99414.28;5076322;28;19927;-71
2022/04/26 12:05:51;;;;;;;;;;;;;;;18.57;39.54;99418.94;5076167;28;19924;-70
2022/04/26 12:08:20;;;;;;;;;;;;;;;18.43;39.70;99416.00;5081946;28;19927;-70
2022/04/26 12:10:48;;;;;;;;;;;;;;;18.32;39.39;99404.38;5078730;28;19925;-70
2022/04/26 12:13:28;;;;;;;;;;;;;;;18.48;40.11;99408.09;5088814;28;20022;-71
2022/04/26 12:16:13;;;;;;;;;;;;;;;18.52;39.94;99405.34;5075940;28;19926;-71
2022/04/26 12:18:53;;;;;;;;;;;;;;;18.54;39.75;99403.56;5075848;28;20460;-70
2022/04/26 12:21:22;;;;;;;;;;;;;;;18.59;39.41;99401.66;5080086;28;19920;-71
2022/04/26 12:24:05;;;;;;;;;;;;;;;18.68;39.19;99401.31;5094140;28;20460;-70
2022/04/26 12:26:34;;;;;;;;;;;;;;;18.64;39.32;99388.56;5095573;28;20431;-70
2022/04/26 12:29:12;;;;;;;;;;;;;;;18.68;39.57;99395.28;5079163;28;19975;-70
2022/04/26 12:31:46;;;;;;;;;;;;;;;18.73;39.39;99394.22;5075588;28;19920;-69
2022/04/26 12:34:19;;;;;;;;;;;;;;;18.90;39.21;99390.97;5073656;28;19925;-69
2022/04/26 12:36:58;;;;;;;;;;;;;;;18.86;38.44;99391.16;5086370;28;19920;-69
2022/04/26 12:39:30;;;;;;;;;;;;;;;18.81;38.77;99385.31;5075300;28;19926;-69
2022/04/26 12:42:01;;;;;;;;;;;;;;;18.71;38.21;99390.81;5078990;28;20265;-70
2022/04/26 12:44:30;;;;;;;;;;;;;;;18.48;38.44;99388.28;5075268;28;19928;-69
2022/04/26 12:55:39;;;;;;;;;;;;;;;18.26;38.56;99377.00;4419113;29;20325;-73
2022/04/26 12:58:36;;;;;;;;;;;;;;;18.27;38.91;99372.69;4936821;29;19923;-73
2022/04/26 13:01:05;;;;;;;;;;;;;;;18.28;38.86;99370.06;4918859;29;19927;-73
2022/04/26 13:03:37;;;;;;;;;;;;;;;18.41;41.16;99370.44;4918886;29;19995;-73
2022/04/26 13:06:08;;;;;;;;;;;;;;;18.33;41.05;99365.53;4928832;29;19930;-72
2022/04/26 13:08:57;;;;;;;;;;;;;;;18.24;41.44;99363.31;4918037;29;19930;-73
2022/04/26 13:11:33;;;;;;;;;;;;;;;18.29;42.52;99363.97;4918317;29;19927;-73
2022/04/26 13:14:01;;;;;;;;;;;;;;;18.33;42.98;99362.97;4918646;29;19923;-72
2022/04/26 13:16:50;;;;;;;;;;;;;;;18.40;43.49;99364.44;4920211;29;19945;-72
2022/04/26 13:19:20;;;;;;;;;;;;;;;18.41;44.13;99360.94;4937045;29;19923;-72
2022/04/26 13:21:49;;;;;;;;;;;;;;;18.35;43.53;99365.50;4937434;29;20277;-73
2022/04/26 13:24:18;;;;;;;;;;;;;;;18.37;44.60;99368.88;4937389;29;19923;-73
2022/04/26 13:26:48;;;;;;;;;;;;;;;18.28;44.19;99366.63;4920656;29;20022;-73
2022/04/26 13:29:16;;;;;;;;;;;;;;;18.24;44.10;99363.31;4937397;29;20435;-73
2022/04/26 13:31:45;;;;;;;;;;;;;;;18.33;44.40;99368.13;4936878;29;19922;-73
2022/04/26 13:34:14;;;;;;;;;;;;;;;18.18;45.00;99368.72;4937010;29;19981;-73
2022/04/26 13:37:07;;;;;;;;;;;;;;;18.06;46.64;99369.16;4934497;29;19923;-73
2022/04/26 13:39:38;;;;;;;;;;;;;;;18.04;46.69;99360.63;4929628;29;19926;-73
2022/04/26 13:42:09;;;;;;;;;;;;;;;17.94;45.99;99369.59;4920764;29;20029;-72
2022/04/26 13:44:38;;;;;;;;;;;;;;;17.77;46.11;99367.59;4936647;29;20377;-73
2022/04/26 13:47:08;;;;;;;;;;;;;;;17.79;46.76;99373.56;4936206;29;19923;-74
2022/04/26 13:49:39;;;;;;;;;;;;;;;18.02;47.35;99362.41;4914941;29;19923;-73
2022/04/26 13:52:10;;;;;;;;;;;;;;;18.20;46.21;99366.06;4919311;29;19944;-73
2022/04/26 13:54:39;;;;;;;;;;;;;;;18.35;45.55;99366.34;4935965;29;20377;-73
2022/04/26 13:57:08;;;;;;;;;;;;;;;18.63;46.89;99358.41;4936639;29;19978;-73
2022/04/26 13:59:37;;;;;;;;;;;;;;;18.68;45.95;99365.09;4936573;29;19926;-73
2022/04/26 14:02:07;;;;;;;;;;;;;;;18.83;44.93;99365.41;4919925;29;19945;-73
2022/04/26 14:04:36;;;;;;;;;;;;;;;18.79;43.90;99363.84;4936726;29;20439;-73
2022/04/26 14:07:05;;;;;;;;;;;;;;;18.89;44.11;99357.41;4921666;29;19922;-73
2022/04/26 14:09:35;;;;;;;;;;;;;;;18.95;44.12;99357.16;4942975;29;19962;-73
2022/04/26 14:12:07;;;;;;;;;;;;;;;19.05;44.30;99363.66;4943242;29;20258;-73
2022/04/26 14:22:37;;;;;;;;;;;;;;;18.94;43.70;99358.06;4943295;29;19923;-73
2022/04/26 14:25:11;;;;;;;;;;;;;;;18.89;43.18;99347.06;4943020;29;20026;-73
2022/04/26 14:27:41;;;;;;;;;;;;;;;18.63;42.56;99350.66;4942830;29;20009;-73
2022/04/26 14:30:10;;;;;;;;;;;;;;;18.59;42.90;99349.97;4942702;29;19923;-73
2022/04/26 14:32:59;;;;;;;;;;;;;;;18.44;43.36;99353.09;4942628;29;20005;-73
2022/04/26 14:35:29;;;;;;;;;;;;;;;18.39;44.01;99351.56;4943072;29;20009;-73
2022/04/26 14:37:58;;;;;;;;;;;;;;;18.40;44.30;99348.94;4942593;29;19923;-73
2022/04/26 14:40:28;;;;;;;;;;;;;;;18.48;43.63;99351.25;4925844;29;19922;-73
2022/04/26 14:43:03;;;;;;;;;;;;;;;18.68;43.41;99354.75;4942651;29;19974;-73
2022/04/26 14:45:32;;;;;;;;;;;;;;;18.85;43.29;99355.84;4942868;29;19922;-73
2022/04/26 14:48:02;;;;;;;;;;;;;;;18.88;42.92;99353.16;4942742;29;19922;-73
2022/04/26 14:50:30;;;;;;;;;;;;;;;18.74;42.24;99357.09;4942662;29;19926;-73
2022/04/26 14:52:59;;;;;;;;;;;;;;;18.68;41.29;99343.56;4942672;29;20013;-73
2022/04/26 14:55:49;;;;;;;;;;;;;;;18.48;40.41;99344.34;4942378;29;19978;-73
2022/04/26 14:58:19;;;;;;;;;;;;;;;18.19;40.27;99347.13;4942562;29;19922;-73
2022/04/26 15:00:47;;;;;;;;;;;;;;;17.98;40.44;99338.44;4942877;29;20275;-73
2022/04/26 15:03:16;;;;;;;;;;;;;;;18.04;41.00;99345.13;4942831;29;19931;-73
2022/04/26 15:05:45;;;;;;;;;;;;;;;18.05;41.09;99341.63;4942475;29;19926;-73
2022/04/26 15:10:54;;;;;;;;;;;;;;;18.20;43.03;99341.06;4942766;29;20377;-73
2022/04/26 15:18:51;;;;;;;;;;;;;;;18.27;42.26;99337.38;4940577;29;19922;-73
2022/04/26 15:21:19;;;;;;;;;;;;;;;18.30;43.02;99334.69;4939354;29;19965;-73
2022/04/26 15:23:48;;;;;;;;;;;;;;;18.28;43.36;99338.22;4939293;29;19923;-73
2022/04/26 15:26:18;;;;;;;;;;;;;;;18.18;42.82;99334.28;4939265;29;19923;-73
2022/04/26 15:28:48;;;;;;;;;;;;;;;18.13;43.81;99339.63;4939217;29;20296;-73
2022/04/26 15:31:18;;;;;;;;;;;;;;;18.07;43.99;99339.81;4939145;29;20345;-73
2022/04/26 15:33:47;;;;;;;;;;;;;;;18.09;44.78;99338.06;4939467;29;19978;-73
2022/04/26 15:36:16;;;;;;;;;;;;;;;18.08;45.08;99336.38;4939438;29;20432;-73
2022/04/26 15:38:47;;;;;;;;;;;;;;;17.93;45.84;99336.91;4939010;29;20013;-73
2022/04/26 15:41:16;;;;;;;;;;;;;;;17.75;46.12;99335.00;4939375;29;19986;-73
2022/04/26 15:43:46;;;;;;;;;;;;;;;17.63;45.71;99335.41;4939058;29;20013;-73
2022/04/26 15:46:35;;;;;;;;;;;;;;;17.63;45.27;99338.84;4939002;29;19922;-73
2022/04/26 15:49:04;;;;;;;;;;;;;;;17.65;45.84;99336.22;4939151;29;20380;-73
2022/04/26 15:51:33;;;;;;;;;;;;;;;17.69;46.27;99341.19;4938801;29;19922;-73
2022/04/26 15:54:03;;;;;;;;;;;;;;;17.83;46.21;99336.41;4921737;29;20284;-73
2022/04/26 15:56:32;;;;;;;;;;;;;;;17.87;45.56;99332.84;4939076;29;19929;-73
2022/04/26 15:59:03;;;;;;;;;;;;;;;17.90;45.69;99337.03;4938859;29;19930;-73
2022/04/26 16:01:36;;;;;;;;;;;;;;;17.89;45.11;99335.34;4938707;29;20013;-73
2022/04/26 16:04:05;;;;;;;;;;;;;;;17.79;45.48;99333.97;4938830;29;20395;-73
2022/04/26 16:06:34;;;;;;;;;;;;;;;17.77;46.29;99336.63;4938777;29;20025;-73
2022/04/26 16:22:16;;;;;;;;;;;;;;;17.09;50.78;99345.81;4938275;29;19922;-72
2022/04/26 16:24:44;;;;;;;;;;;;;;;17.07;50.75;99345.03;4938443;29;19961;-73
2022/04/26 16:27:13;;;;;;;;;;;;;;;16.97;50.38;99341.91;4938077;29;20017;-73
2022/04/26 16:29:44;;;;;;;;;;;;;;;16.96;50.72;99344.53;4937799;29;19950;-72
2022/04/26 16:32:13;;;;;;;;;;;;;;;16.94;51.29;99347.13;4937469;29;20380;-73
2022/04/26 16:34:45;;;;;;;;;;;;;;;16.89;51.24;99349.06;4938320;29;19965;-73
2022/04/26 16:37:13;;;;;;;;;;;;;;;16.86;51.07;99353.44;4937995;29;19922;-73
2022/04/26 16:39:42;;;;;;;;;;;;;;;16.84;50.94;99350.94;4921324;29;19923;-73
2022/04/26 16:42:11;;;;;;;;;;;;;;;16.89;51.94;99359.38;4938168;29;19961;-73
2022/04/26 16:44:39;;;;;;;;;;;;;;;16.89;51.78;99359.38;4938277;29;19923;-73
2022/04/26 16:47:11;;;;;;;;;;;;;;;16.86;51.82;99359.44;4937605;29;19923;-73
2022/04/26 16:49:39;;;;;;;;;;;;;;;16.85;52.44;99351.75;4937907;29;19922;-72
2022/04/26 16:52:08;;;;;;;;;;;;;;;16.80;52.25;99354.47;4937723;29;19923;-72
2022/04/26 16:54:38;;;;;;;;;;;;;;;16.79;52.55;99355.38;4917410;29;19930;-72
2022/04/26 16:57:07;;;;;;;;;;;;;;;16.74;53.00;99352.09;4918925;29;19971;-73
2022/04/26 16:59:35;;;;;;;;;;;;;;;16.70;53.40;99353.06;4918738;29;19927;-73
2022/04/26 17:02:04;;;;;;;;;;;;;;;16.65;53.57;99352.38;4918763;29;19969;-73
2022/04/26 17:04:34;;;;;;;;;;;;;;;16.56;53.35;99355.22;4919151;29;19930;-73
2022/04/26 17:07:04;;;;;;;;;;;;;;;16.51;53.95;99359.63;4918531;29;19923;-73
2022/04/26 17:09:34;;;;;;;;;;;;;;;16.42;55.07;99357.31;4918750;29;20322;-73
2022/04/26 17:12:03;;;;;;;;;;;;;;;16.28;55.62;99364.63;4918551;29;20001;-73
2022/04/26 17:14:32;;;;;;;;;;;;;;;16.19;54.98;99364.88;4918243;29;19963;-72
2022/04/26 17:17:02;;;;;;;;;;;;;;;16.05;56.17;99375.59;4918417;29;19978;-73
2022/04/26 17:19:31;;;;;;;;;;;;;;;15.86;56.13;99377.78;4917076;29;19930;-73
2022/04/26 17:22:01;;;;;;;;;;;;;;;15.81;56.28;99379.66;4917412;29;20341;-73
2022/04/26 17:27:10;;;;;;;;;;;;;;;15.33;58.61;99380.91;4918060;29;19923;-73
2022/04/26 17:29:38;;;;;;;;;;;;;;;15.08;59.34;99384.94;4918234;29;19923;-73
2022/04/26 17:32:12;;;;;;;;;;;;;;;14.87;59.56;99386.28;4918357;29;19923;-73
2022/04/26 17:34:42;;;;;;;;;;;;;;;14.58;60.42;99386.94;4918158;29;19979;-72
2022/04/26 17:37:13;;;;;;;;;;;;;;;14.38;61.21;99383.94;4917953;29;19923;-73
2022/04/26 17:39:42;;;;;;;;;;;;;;;14.27;61.76;99387.56;4918383;29;19974;-72
2022/04/26 17:42:11;;;;;;;;;;;;;;;14.00;62.87;99389.81;4917734;29;19970;-72